createdAt,value
2022-11-20T00:01:31.631Z,100280.34
2022-11-20T00:03:59.166Z,100274.28
2022-11-20T00:06:27.662Z,100267.31
2022-11-20T00:08:59.336Z,100252.62
2022-11-20T00:11:28.004Z,100233.53
2022-11-20T00:13:58.229Z,100223.00
2022-11-20T00:16:27.070Z,100218.59
2022-11-20T00:18:55.194Z,100236.06
2022-11-20T00:21:25.478Z,100243.87
2022-11-20T00:23:55.309Z,100243.00
2022-11-20T00:26:24.110Z,100199.97
2022-11-20T00:28:53.489Z,100247.34
2022-11-20T00:31:20.670Z,100241.22
2022-11-20T00:33:47.867Z,100235.00
2022-11-20T00:36:17.727Z,100234.00
2022-11-20T00:38:46.378Z,100251.50
2022-11-20T00:41:15.853Z,100243.56
2022-11-20T00:43:42.867Z,100233.87
2022-11-20T00:46:22.310Z,100237.50
2022-11-20T00:48:49.448Z,100244.53
2022-11-20T00:51:19.943Z,100259.50
2022-11-20T00:53:47.543Z,100248.13
2022-11-20T00:56:17.733Z,100271.84
2022-11-20T00:58:47.055Z,100240.25
2022-11-20T01:01:19.961Z,100272.84
2022-11-20T01:03:51.803Z,100260.66
2022-11-20T01:06:40.139Z,100259.78
2022-11-20T01:09:11.789Z,100253.66
2022-11-20T01:11:42.082Z,100245.59
2022-11-20T01:14:17.146Z,100259.66
2022-11-20T01:16:46.920Z,100255.22
2022-11-20T01:19:18.187Z,100256.00
2022-11-20T01:21:47.329Z,100257.53
2022-11-20T01:24:15.679Z,100250.47
2022-11-20T01:26:44.071Z,100244.22
2022-11-20T01:29:21.353Z,100254.78
2022-11-20T01:31:48.509Z,100257.31
2022-11-20T01:34:18.520Z,100253.84
2022-11-20T01:36:45.944Z,100245.94
2022-11-20T01:39:17.184Z,100239.84
2022-11-20T01:42:09.374Z,100242.47
2022-11-20T01:44:57.689Z,100242.47
2022-11-20T01:47:39.870Z,100235.62
2022-11-20T01:50:22.870Z,100221.66
2022-11-20T01:52:55.966Z,100218.16
2022-11-20T01:55:29.197Z,100221.72
2022-11-20T01:57:56.686Z,100230.41
2022-11-20T02:00:23.468Z,100229.63
2022-11-20T02:02:58.269Z,100215.72
2022-11-20T02:05:44.552Z,100206.22
2022-11-20T02:08:12.824Z,100186.09
2022-11-20T02:10:39.588Z,100203.66
2022-11-20T02:13:25.344Z,100200.25
2022-11-20T02:15:52.906Z,100202.87
2022-11-20T02:18:21.084Z,100174.88
2022-11-20T02:20:51.140Z,100194.22
2022-11-20T02:23:48.786Z,100191.59
2022-11-20T02:26:18.004Z,100196.81
2022-11-20T02:28:45.068Z,100187.25
2022-11-20T02:31:11.959Z,100177.56
2022-11-20T02:33:39.243Z,100191.56
2022-11-20T02:36:06.568Z,100186.31
2022-11-20T02:38:33.523Z,100183.72
2022-11-20T02:41:00.316Z,100194.22
2022-11-20T02:43:27.119Z,100191.59
2022-11-20T02:45:53.923Z,100187.25
2022-11-20T02:48:20.736Z,100183.78
2022-11-20T02:50:48.195Z,100168.97
2022-11-20T02:53:14.928Z,100175.94
2022-11-20T02:55:41.852Z,100178.53
2022-11-20T02:58:08.690Z,100175.87
2022-11-20T03:00:36.512Z,100183.78
2022-11-20T03:03:03.395Z,100186.41
2022-11-20T03:05:30.162Z,100160.97
2022-11-20T03:07:56.927Z,100182.94
2022-11-20T03:10:23.912Z,100180.34
2022-11-20T03:12:56.868Z,100171.59
2022-11-20T03:15:24.645Z,100169.66
2022-11-20T03:17:55.744Z,100161.84
2022-11-20T03:20:23.211Z,100147.84
2022-11-20T03:22:50.107Z,100163.63
2022-11-20T03:25:17.000Z,100182.03
2022-11-20T03:27:43.779Z,100178.53
2022-11-20T03:30:11.049Z,100181.97
2022-11-20T03:32:37.873Z,100174.94
2022-11-20T03:35:05.037Z,100196.91
2022-11-20T03:37:32.824Z,100196.03
2022-11-20T03:39:59.724Z,100207.34
2022-11-20T03:42:45.205Z,100195.97
2022-11-20T03:45:12.755Z,100196.87
2022-11-20T03:47:39.970Z,100182.09
2022-11-20T03:50:07.252Z,100184.69
2022-11-20T03:52:34.016Z,100179.41
2022-11-20T03:55:00.843Z,100180.34
2022-11-20T03:57:27.592Z,100182.91
2022-11-20T03:59:54.314Z,100193.34
2022-11-20T04:02:21.150Z,100162.69
2022-11-20T04:04:47.879Z,100170.66
2022-11-20T04:07:14.717Z,100151.31
2022-11-20T04:09:41.592Z,100142.44
2022-11-20T04:12:08.406Z,100174.94
2022-11-20T04:14:35.134Z,100174.84
2022-11-20T04:17:01.989Z,100174.94
2022-11-20T04:19:28.860Z,100169.72
2022-11-20T04:21:55.629Z,100142.56
2022-11-20T04:24:22.415Z,100148.81
2022-11-20T04:26:49.190Z,100160.13
2022-11-20T04:29:16.272Z,100160.22
2022-11-20T04:31:43.085Z,100160.25
2022-11-20T04:34:12.819Z,100128.69
2022-11-20T04:36:39.686Z,100148.13
2022-11-20T04:39:07.474Z,100126.03
2022-11-20T04:41:36.481Z,100144.59
2022-11-20T04:44:05.306Z,100135.78
2022-11-20T04:46:35.484Z,100125.44
2022-11-20T04:49:02.433Z,100117.53
2022-11-20T04:51:29.429Z,100115.78
2022-11-20T04:53:56.445Z,100123.62
2022-11-20T04:56:23.510Z,100134.12
2022-11-20T04:58:51.006Z,100126.13
2022-11-20T05:01:20.379Z,100111.34
2022-11-20T05:03:47.354Z,100120.19
2022-11-20T05:06:16.383Z,100082.50
2022-11-20T05:08:43.703Z,100107.91
2022-11-20T05:11:13.471Z,100101.00
2022-11-20T05:13:40.852Z,100103.50
2022-11-20T05:16:10.933Z,100090.34
2022-11-20T05:18:38.794Z,100102.75
2022-11-20T05:21:06.587Z,100081.63
2022-11-20T05:23:34.323Z,100084.19
2022-11-20T05:26:01.954Z,100115.84
2022-11-20T05:28:30.282Z,100113.25
2022-11-20T05:30:57.129Z,100102.84
2022-11-20T05:33:23.954Z,100109.81
2022-11-20T05:35:50.987Z,100110.69
2022-11-20T05:38:17.760Z,100086.94
2022-11-20T05:40:44.654Z,100097.50
2022-11-20T05:43:11.430Z,100099.25
2022-11-20T05:45:38.279Z,100093.94
2022-11-20T05:48:05.283Z,100092.25
2022-11-20T05:50:32.117Z,100088.69
2022-11-20T05:53:00.600Z,100094.63
2022-11-20T05:55:28.278Z,100099.84
2022-11-20T05:57:56.168Z,100099.75
2022-11-20T06:00:23.363Z,100120.69
2022-11-20T06:02:50.256Z,100116.41
2022-11-20T06:05:17.323Z,100121.59
2022-11-20T06:07:44.338Z,100116.28
2022-11-20T06:10:11.440Z,100102.34
2022-11-20T06:12:38.260Z,100125.09
2022-11-20T06:15:06.649Z,100126.88
2022-11-20T06:17:33.381Z,100133.84
2022-11-20T06:20:00.360Z,100127.75
2022-11-20T06:22:27.167Z,100113.78
2022-11-20T06:24:53.949Z,100131.41
2022-11-20T06:27:20.804Z,100125.31
2022-11-20T06:29:47.593Z,100129.72
2022-11-20T06:32:14.473Z,100126.25
2022-11-20T06:34:41.284Z,100131.41
2022-11-20T06:37:08.094Z,100123.56
2022-11-20T06:39:34.891Z,100113.25
2022-11-20T06:42:01.643Z,100105.34
2022-11-20T06:44:28.417Z,100099.25
2022-11-20T06:46:55.259Z,100123.78
2022-11-20T06:49:22.358Z,100129.19
2022-11-20T06:51:49.296Z,100137.94
2022-11-20T06:54:16.118Z,100139.75
2022-11-20T06:56:42.921Z,100147.72
2022-11-20T06:59:09.917Z,100142.47
2022-11-20T07:01:37.258Z,100147.69
2022-11-20T07:04:04.298Z,100165.25
2022-11-20T07:06:31.270Z,100170.59
2022-11-20T07:08:58.547Z,100176.69
2022-11-20T07:11:25.430Z,100181.91
2022-11-20T07:13:52.221Z,100178.44
2022-11-20T07:16:19.300Z,100156.56
2022-11-20T07:18:50.466Z,100154.84
2022-11-20T07:21:18.311Z,100169.72
2022-11-20T07:23:45.158Z,100169.78
2022-11-20T07:26:12.229Z,100166.34
2022-11-20T07:28:39.453Z,100143.62
2022-11-20T07:31:14.620Z,100153.34
2022-11-20T07:33:44.436Z,100150.75
2022-11-20T07:36:11.403Z,100127.06
2022-11-20T07:38:38.977Z,100143.75
2022-11-20T07:41:05.979Z,100151.63
2022-11-20T07:43:35.874Z,100170.94
2022-11-20T07:46:06.673Z,100178.88
2022-11-20T07:48:33.513Z,100174.59
2022-11-20T07:51:00.425Z,100146.59
2022-11-20T07:53:27.305Z,100166.84
2022-11-20T07:55:54.234Z,100171.22
2022-11-20T07:58:22.489Z,100149.37
2022-11-20T08:00:49.754Z,100163.50
2022-11-20T08:03:21.636Z,100169.63
2022-11-20T08:05:51.332Z,100169.72
2022-11-20T08:08:18.433Z,100174.19
2022-11-20T08:10:45.265Z,100166.28
2022-11-20T08:13:30.778Z,100175.97
2022-11-20T08:15:57.605Z,100166.41
2022-11-20T08:18:31.166Z,100162.87
2022-11-20T08:20:59.274Z,100136.53
2022-11-20T08:23:26.116Z,100166.37
2022-11-20T08:25:52.915Z,100173.38
2022-11-20T08:28:22.296Z,100169.03
2022-11-20T08:30:51.251Z,100162.91
2022-11-20T08:33:19.290Z,100176.97
2022-11-20T08:35:46.499Z,100176.03
2022-11-20T08:38:13.273Z,100172.63
2022-11-20T08:40:40.021Z,100162.06
2022-11-20T08:43:06.853Z,100163.00
2022-11-20T08:45:34.955Z,100161.41
2022-11-20T08:48:04.230Z,100136.16
2022-11-20T08:50:33.326Z,100162.31
2022-11-20T08:53:05.498Z,100157.12
2022-11-20T08:55:32.607Z,100175.56
2022-11-20T08:57:59.516Z,100171.25
2022-11-20T09:00:27.138Z,100180.97
2022-11-20T09:02:54.062Z,100180.91
2022-11-20T09:05:20.910Z,100175.66
2022-11-20T09:07:47.745Z,100162.50
2022-11-20T09:10:24.018Z,100175.69
2022-11-20T09:12:52.953Z,100173.94
2022-11-20T09:15:20.338Z,100163.38
2022-11-20T09:17:57.824Z,100180.88
2022-11-20T09:20:25.449Z,100182.59
2022-11-20T09:22:52.711Z,100171.22
2022-11-20T09:25:21.589Z,100161.63
2022-11-20T09:27:48.816Z,100176.59
2022-11-20T09:30:16.609Z,100187.06
2022-11-20T09:32:43.895Z,100194.03
2022-11-20T09:35:11.928Z,100201.06
2022-11-20T09:37:39.187Z,100195.84
2022-11-20T09:40:06.641Z,100193.22
2022-11-20T09:42:48.649Z,100182.78
2022-11-20T09:45:24.523Z,100191.62
2022-11-20T09:48:16.881Z,100189.91
2022-11-20T09:50:48.815Z,100182.94
2022-11-20T09:53:35.080Z,100179.44
2022-11-20T09:56:04.383Z,100183.88
2022-11-20T09:58:41.508Z,100167.25
2022-11-20T10:01:15.599Z,100170.00
2022-11-20T10:03:52.743Z,100162.16
2022-11-20T10:06:25.282Z,100162.19
2022-11-20T10:09:20.067Z,100163.97
2022-11-20T10:12:29.426Z,100156.09
2022-11-20T10:15:05.137Z,100157.88
2022-11-20T10:17:56.536Z,100147.38
2022-11-20T10:20:47.704Z,100145.69
2022-11-20T10:23:29.468Z,100139.44
2022-11-20T10:26:03.976Z,100129.69
2022-11-20T10:29:00.661Z,100132.22
2022-11-20T10:31:42.466Z,100127.88
2022-11-20T10:34:25.289Z,100118.84
2022-11-20T10:37:04.818Z,100110.03
2022-11-20T10:39:42.411Z,100109.03
2022-11-20T10:42:18.329Z,100106.84
2022-11-20T10:45:05.736Z,100095.06
2022-11-20T10:47:33.922Z,100111.34
2022-11-20T10:50:10.750Z,100113.09
2022-11-20T10:52:56.018Z,100112.28
2022-11-20T10:55:33.960Z,100105.03
2022-11-20T10:58:08.169Z,100098.81
2022-11-20T11:00:35.034Z,100098.19
2022-11-20T11:03:04.020Z,100096.69
2022-11-20T11:05:40.540Z,100106.38
2022-11-20T11:08:14.784Z,100092.13
2022-11-20T11:11:20.347Z,100095.19
2022-11-20T11:13:47.173Z,100089.62
2022-11-20T11:16:28.078Z,100089.91
2022-11-20T11:19:13.290Z,100106.69
2022-11-20T11:21:53.841Z,100106.47
2022-11-20T11:24:46.000Z,100118.75
2022-11-20T11:27:19.136Z,100113.31
2022-11-20T11:29:47.140Z,100101.87
2022-11-20T11:32:15.408Z,100108.09
2022-11-20T11:34:42.645Z,100108.16
2022-11-20T11:37:18.584Z,100117.22
2022-11-20T11:39:49.397Z,100102.88
2022-11-20T11:42:22.125Z,100111.97
2022-11-20T11:45:07.803Z,100104.87
2022-11-20T11:47:46.470Z,100109.28
2022-11-20T11:50:13.248Z,100106.41
2022-11-20T11:52:52.381Z,100110.22
2022-11-20T11:55:34.347Z,100099.69
2022-11-20T11:58:26.410Z,100092.38
2022-11-20T12:01:04.391Z,100079.09
2022-11-20T12:03:44.382Z,100075.81
2022-11-20T12:06:15.184Z,100062.78
2022-11-20T12:09:00.726Z,100067.75
2022-11-20T12:11:38.952Z,100059.00
2022-11-20T12:14:30.798Z,100074.91
2022-11-20T12:16:58.683Z,100075.91
2022-11-20T12:19:26.099Z,100079.94
2022-11-20T12:22:01.898Z,100091.66
2022-11-20T12:24:30.096Z,100084.87
2022-11-20T12:27:15.456Z,100085.91
2022-11-20T12:30:14.752Z,100080.72
2022-11-20T12:32:45.187Z,100084.25
2022-11-20T12:35:30.607Z,100094.78
2022-11-20T12:38:09.613Z,100084.09
2022-11-20T12:40:54.867Z,100089.47
2022-11-20T12:43:51.410Z,100077.28
2022-11-20T12:46:27.332Z,100069.97
2022-11-20T12:49:01.242Z,100050.47
2022-11-20T12:51:35.165Z,100046.12
2022-11-20T12:54:07.877Z,100045.97
2022-11-20T12:56:47.062Z,100049.72
2022-11-20T12:59:32.639Z,100059.12
2022-11-20T13:02:33.269Z,100052.00
2022-11-20T13:05:22.770Z,100061.88
2022-11-20T13:07:53.181Z,100071.56
2022-11-20T13:10:28.830Z,100052.19
2022-11-20T13:13:06.726Z,100074.87
2022-11-20T13:15:44.563Z,100066.75
2022-11-20T13:18:13.514Z,100064.47
2022-11-20T13:20:48.038Z,100063.63
2022-11-20T13:23:28.656Z,100060.69
2022-11-20T13:26:18.708Z,100073.47
2022-11-20T13:28:50.651Z,100071.37
2022-11-20T13:31:31.897Z,100067.87
2022-11-20T13:34:01.161Z,100070.97
2022-11-20T13:36:31.695Z,100076.94
2022-11-20T13:38:59.156Z,100071.13
2022-11-20T13:41:36.530Z,100069.31
2022-11-20T13:44:25.044Z,100073.03
2022-11-20T13:46:52.669Z,100068.59
2022-11-20T13:49:29.012Z,100071.97
2022-11-20T13:52:20.405Z,100055.25
2022-11-20T13:54:56.384Z,100046.00
2022-11-20T13:57:33.874Z,100068.09
2022-11-20T14:00:14.765Z,100052.34
2022-11-20T14:02:43.891Z,100055.44
2022-11-20T14:05:24.709Z,100032.75
2022-11-20T14:07:54.149Z,100032.75
2022-11-20T14:10:31.285Z,100042.78
2022-11-20T14:12:59.189Z,100040.03
2022-11-20T14:15:29.079Z,100048.81
2022-11-20T14:17:56.474Z,100046.00
2022-11-20T14:20:28.606Z,100042.16
2022-11-20T14:22:56.557Z,100045.50
2022-11-20T14:25:28.377Z,100042.62
2022-11-20T14:27:58.669Z,100037.37
2022-11-20T14:30:29.058Z,100045.19
2022-11-20T14:33:01.274Z,100050.72
2022-11-20T14:35:35.691Z,100042.31
2022-11-20T14:38:03.765Z,100052.12
2022-11-20T14:40:39.818Z,100034.91
2022-11-20T14:43:38.987Z,100043.75
2022-11-20T14:46:13.387Z,100041.19
2022-11-20T14:48:44.382Z,100057.00
2022-11-20T14:51:13.447Z,100056.19
2022-11-20T14:53:40.618Z,100044.00
2022-11-20T14:56:09.446Z,100048.38
2022-11-20T14:58:36.444Z,100056.28
2022-11-20T15:01:06.731Z,100070.31
2022-11-20T15:03:39.360Z,100070.34
2022-11-20T15:06:12.542Z,100073.00
2022-11-20T15:08:39.800Z,100075.63
2022-11-20T15:11:24.967Z,100076.47
2022-11-20T15:13:52.112Z,100069.50
2022-11-20T15:16:22.099Z,100086.12
2022-11-20T15:18:49.600Z,100073.88
2022-11-20T15:21:19.275Z,100080.91
2022-11-20T15:23:46.539Z,100082.62
2022-11-20T15:26:20.025Z,100081.78
2022-11-20T15:28:51.465Z,100079.12
2022-11-20T15:31:21.390Z,100073.88
2022-11-20T15:33:49.224Z,100074.72
2022-11-20T15:36:16.698Z,100085.22
2022-11-20T15:38:43.949Z,100081.72
2022-11-20T15:41:13.877Z,100079.06
2022-11-20T15:43:40.818Z,100079.94
2022-11-20T15:46:13.113Z,100075.53
2022-11-20T15:48:48.558Z,100076.41
2022-11-20T15:51:26.781Z,100092.13
2022-11-20T15:53:54.155Z,100090.38
2022-11-20T15:56:21.833Z,100077.22
2022-11-20T15:58:49.164Z,100082.47
2022-11-20T16:01:19.768Z,100082.50
2022-11-20T16:03:47.709Z,100084.22
2022-11-20T16:06:15.068Z,100086.00
2022-11-20T16:08:42.623Z,100087.72
2022-11-20T16:11:14.073Z,100091.19
2022-11-20T16:13:59.729Z,100064.84
2022-11-20T16:16:31.567Z,100085.88
2022-11-20T16:18:59.377Z,100088.41
2022-11-20T16:21:32.567Z,100094.56
2022-11-20T16:24:01.370Z,100068.34
2022-11-20T16:26:28.930Z,100086.75
2022-11-20T16:28:57.166Z,100094.63
2022-11-20T16:31:24.598Z,100090.22
2022-11-20T16:33:59.681Z,100070.91
2022-11-20T16:36:28.928Z,100077.94
2022-11-20T16:38:59.317Z,100079.66
2022-11-20T16:41:28.430Z,100084.03
2022-11-20T16:44:03.653Z,100060.31
2022-11-20T16:46:32.830Z,100086.53
2022-11-20T16:49:01.042Z,100068.94
2022-11-20T16:51:29.916Z,100087.31
2022-11-20T16:53:57.263Z,100090.75
2022-11-20T16:56:27.154Z,100086.38
2022-11-20T16:58:56.928Z,100081.94
2022-11-20T17:01:25.555Z,100080.16
2022-11-20T17:04:04.832Z,100072.25
2022-11-20T17:06:34.872Z,100073.94
2022-11-20T17:09:02.656Z,100063.41
2022-11-20T17:11:30.241Z,100068.59
2022-11-20T17:14:00.900Z,100059.75
2022-11-20T17:16:28.589Z,100058.88
2022-11-20T17:19:02.815Z,100043.09
2022-11-20T17:21:36.471Z,100049.22
2022-11-20T17:24:05.992Z,100039.56
2022-11-20T17:26:34.377Z,100041.16
2022-11-20T17:29:07.756Z,100050.72
2022-11-20T17:31:36.154Z,100033.25
2022-11-20T17:34:03.620Z,100041.06
2022-11-20T17:36:31.362Z,100034.81
2022-11-20T17:38:59.466Z,100040.94
2022-11-20T17:41:28.422Z,100034.69
2022-11-20T17:44:00.770Z,100043.47
2022-11-20T17:46:30.847Z,100060.81
2022-11-20T17:48:58.270Z,100053.84
2022-11-20T17:51:27.844Z,100047.72
2022-11-20T17:54:04.011Z,100057.25
2022-11-20T17:56:54.501Z,100042.41
2022-11-20T17:59:22.696Z,100041.53
2022-11-20T18:01:49.667Z,100043.25
2022-11-20T18:04:17.516Z,100049.28
2022-11-20T18:06:45.125Z,100008.06
2022-11-20T18:09:13.045Z,100037.81
2022-11-20T18:11:42.438Z,100042.94
2022-11-20T18:14:29.647Z,100039.47
2022-11-20T18:17:06.303Z,100035.84
2022-11-20T18:19:44.695Z,100032.34
2022-11-20T18:22:20.286Z,100015.56
2022-11-20T18:24:47.634Z,100044.50
2022-11-20T18:27:21.885Z,100041.03
2022-11-20T18:29:52.339Z,100038.16
2022-11-20T18:32:21.825Z,100043.31
2022-11-20T18:34:49.363Z,100052.06
2022-11-20T18:37:17.144Z,100058.94
2022-11-20T18:39:44.823Z,100065.03
2022-11-20T18:42:35.545Z,100069.31
2022-11-20T18:45:05.533Z,100072.56
2022-11-20T18:47:38.073Z,100074.28
2022-11-20T18:50:07.139Z,100084.84
2022-11-20T18:52:40.570Z,100088.25
2022-11-20T18:55:08.679Z,100091.63
2022-11-20T18:57:36.212Z,100093.41
2022-11-20T19:02:55.156Z,100102.91
2022-11-20T19:05:22.869Z,100102.63
2022-11-20T19:07:50.545Z,100085.03
2022-11-20T19:10:21.210Z,100105.97
2022-11-20T19:12:49.277Z,100099.94
2022-11-20T19:15:16.833Z,100102.50
2022-11-20T19:17:44.357Z,100111.09
2022-11-20T19:20:12.074Z,100111.09
2022-11-20T19:22:39.511Z,100109.34
2022-11-20T19:25:07.410Z,100112.91
2022-11-20T19:27:34.876Z,100115.53
2022-11-20T19:30:04.216Z,100111.78
2022-11-20T19:32:31.228Z,100080.22
2022-11-20T19:34:58.505Z,100101.34
2022-11-20T19:37:25.850Z,100108.16
2022-11-20T19:39:53.191Z,100121.16
2022-11-20T19:42:20.104Z,100102.63
2022-11-20T19:44:47.042Z,100130.62
2022-11-20T19:47:14.862Z,100117.31
2022-11-20T19:49:42.596Z,100113.09
2022-11-20T19:52:10.599Z,100094.78
2022-11-20T19:54:38.091Z,100091.25
2022-11-20T19:57:05.306Z,100089.44
2022-11-20T19:59:32.174Z,100097.19
2022-11-20T20:01:59.051Z,100096.16
2022-11-20T20:04:26.649Z,100120.50
2022-11-20T20:06:54.094Z,100108.25
2022-11-20T20:09:24.056Z,100080.19
2022-11-20T20:11:51.517Z,100084.94
2022-11-20T20:14:18.978Z,100083.16
2022-11-20T20:16:46.064Z,100089.16
2022-11-20T20:19:15.857Z,100081.31
2022-11-20T20:21:43.949Z,100071.56
2022-11-20T20:24:13.057Z,100062.72
2022-11-20T20:26:42.695Z,100087.25
2022-11-20T20:29:10.608Z,100089.78
2022-11-20T20:31:37.973Z,100087.19
2022-11-20T20:34:06.041Z,100069.59
2022-11-20T20:36:33.307Z,100071.41
2022-11-20T20:39:00.569Z,100059.94
2022-11-20T20:41:27.900Z,100056.56
2022-11-20T20:44:14.247Z,100059.19
2022-11-20T20:46:42.064Z,100054.81
2022-11-20T20:49:09.823Z,100051.28
2022-11-20T20:51:36.780Z,100027.75
2022-11-20T20:54:05.104Z,100038.41
2022-11-20T20:56:35.326Z,100047.06
2022-11-20T20:59:04.083Z,100051.22
2022-11-20T21:01:32.587Z,100050.31
2022-11-20T21:04:00.059Z,100043.06
2022-11-20T21:06:27.070Z,100057.84
2022-11-20T21:08:55.994Z,100070.87
2022-11-20T21:11:23.116Z,100075.06
2022-11-20T21:13:51.302Z,100072.44
2022-11-20T21:16:21.154Z,100025.34
2022-11-20T21:18:48.593Z,100046.44
2022-11-20T21:21:35.118Z,100039.25
2022-11-20T21:24:02.929Z,100055.72
2022-11-20T21:26:29.848Z,100036.38
2022-11-20T21:28:57.861Z,100032.81
2022-11-20T21:31:27.072Z,100056.53
2022-11-20T21:33:55.600Z,100054.00
2022-11-20T21:36:28.554Z,100054.78
2022-11-20T21:38:57.012Z,100056.56
2022-11-20T21:41:26.644Z,100061.81
2022-11-20T21:46:45.700Z,100046.38
2022-11-20T21:49:13.284Z,100077.97
2022-11-20T21:51:40.692Z,100069.09
2022-11-20T21:54:07.583Z,100076.94
2022-11-20T21:56:34.495Z,100078.66
2022-11-20T21:59:01.396Z,100052.41
2022-11-20T22:01:30.185Z,100055.06
2022-11-20T22:03:59.267Z,100075.19
2022-11-20T22:06:29.635Z,100073.47
2022-11-20T22:08:56.884Z,100062.94
2022-11-20T22:11:24.082Z,100035.72
2022-11-20T22:14:09.590Z,100068.16
2022-11-20T22:16:38.002Z,100061.22
2022-11-20T22:19:20.590Z,100067.44
2022-11-20T22:21:48.103Z,100040.09
2022-11-20T22:24:17.205Z,100047.00
2022-11-20T22:26:44.255Z,100066.34
2022-11-20T22:29:17.042Z,100062.03
2022-11-20T22:31:44.129Z,100046.38
2022-11-20T22:34:13.168Z,100054.97
2022-11-20T22:36:40.590Z,100043.72
2022-11-20T22:39:07.742Z,100040.31
2022-11-20T22:41:34.937Z,100032.34
2022-11-20T22:44:04.821Z,100028.94
2022-11-20T22:46:33.986Z,100019.34
2022-11-20T22:49:03.033Z,100012.22
2022-11-20T22:51:32.841Z,100019.09
2022-11-20T22:54:00.245Z,100003.50
2022-11-20T22:56:27.179Z,100007.03
2022-11-20T22:58:54.331Z,100008.75
2022-11-20T23:01:26.407Z,99992.09
2022-11-20T23:04:01.469Z,100005.12
2022-11-20T23:06:29.093Z,100007.72
2022-11-20T23:08:57.043Z,100014.59
2022-11-20T23:11:26.881Z,100004.16
2022-11-20T23:14:02.830Z,100007.75
2022-11-20T23:16:31.401Z,99999.91
2022-11-20T23:19:01.301Z,100001.41
2022-11-20T23:21:28.712Z,100003.97
2022-11-20T23:23:57.288Z,99995.34
2022-11-20T23:26:28.437Z,99983.19
2022-11-20T23:28:57.855Z,99984.06
2022-11-20T23:31:27.049Z,99984.13
2022-11-20T23:33:55.935Z,99977.13
2022-11-20T23:36:23.344Z,99981.38
2022-11-20T23:38:50.519Z,99977.72
2022-11-20T23:41:17.622Z,99983.81
2022-11-20T23:43:44.468Z,99975.91
2022-11-20T23:46:15.123Z,99975.81
2022-11-20T23:48:45.069Z,99970.59
2022-11-20T23:51:13.116Z,99974.97
2022-11-20T23:53:40.057Z,99946.88
2022-11-20T23:56:06.995Z,99975.06
2022-11-20T23:58:36.758Z,99958.44
